Time;durP1;ratioP1;P1;durP2;ratioP2;P2;SDS_P1;SDS_P2;PMS_P1;PMS_P2;Temp;Humidity;BMP_temperature;BMP_pressure;BME280_temperature;BME280_humidity;BME280_pressure;Samples;Min_cycle;Max_cycle;Signal;HPM_P1;HPM_P2
2021/12/09 00:02:16;;;;;;;25.40;11.60;;;;;;;9.25;73.09;98601.02;24466;1355;3068286;-65
2021/12/09 00:04:46;;;;;;;31.90;13.40;;;;;;;9.03;73.71;98603.91;24468;1361;3026578;-65
2021/12/09 00:07:15;;;;;;;25.40;12.20;;;;;;;8.82;74.23;98605.14;24482;1354;3027031;-64
2021/12/09 00:09:45;;;;;;;29.00;11.80;;;;;;;8.69;74.89;98607.60;24470;1355;3028819;-63
2021/12/09 00:12:14;;;;;;;28.70;11.20;;;;;;;8.50;75.95;98613.35;24483;1355;3026761;-64
2021/12/09 00:14:44;;;;;;;29.20;11.10;;;;;;;8.94;75.09;98612.77;24464;1358;3054414;-64
2021/12/09 00:17:12;;;;;;;27.30;10.90;;;;;;;9.51;73.51;98613.71;24495;1358;3026612;-64
2021/12/09 00:19:41;;;;;;;29.30;11.80;;;;;;;9.51;72.94;98613.19;24490;1352;3048692;-63
2021/12/09 00:22:13;;;;;;;37.70;14.60;;;;;;;9.32;73.53;98616.82;24497;1356;3027027;-67
2021/12/09 00:24:42;;;;;;;32.40;14.30;;;;;;;9.11;74.27;98622.82;24480;1355;3068455;-64
2021/12/09 00:27:11;;;;;;;31.30;13.60;;;;;;;8.87;75.20;98624.95;24488;1356;3026558;-65
2021/12/09 00:29:40;;;;;;;35.70;14.70;;;;;;;8.68;75.90;98627.75;24489;1360;3053582;-63
2021/12/09 00:32:09;;;;;;;22.90;10.70;;;;;;;8.54;76.76;98632.52;24521;1355;3026465;-65
2021/12/09 00:34:42;;;;;;;23.50;9.90;;;;;;;9.03;75.72;98633.30;24499;1355;3055590;-67
2021/12/09 00:37:23;;;;;;;38.70;11.50;;;;;;;9.56;73.95;98624.43;24518;1355;3026837;-64
2021/12/09 00:39:52;;;;;;;26.90;12.40;;;;;;;9.61;73.55;98625.10;24484;1355;3071882;-64
2021/12/09 00:42:24;;;;;;;31.50;12.60;;;;;;;9.42;73.83;98624.01;24501;1355;3026872;-64
2021/12/09 00:44:53;;;;;;;28.70;12.80;;;;;;;9.21;74.51;98623.14;24513;1355;3027359;-67
2021/12/09 00:47:22;;;;;;;35.30;13.70;;;;;;;8.94;75.60;98629.16;24467;1354;3026453;-63
2021/12/09 00:49:55;;;;;;;32.80;13.10;;;;;;;8.80;76.03;98624.02;24483;1349;3026296;-64
2021/12/09 00:52:24;;;;;;;27.60;10.60;;;;;;;8.64;76.75;98624.67;24510;1355;3054517;-64
2021/12/09 00:54:54;;;;;;;27.60;11.30;;;;;;;9.07;76.10;98619.70;24490;1355;3026649;-64
2021/12/09 00:57:23;;;;;;;27.40;10.60;;;;;;;9.55;74.74;98620.09;24511;1355;3027541;-64
2021/12/09 00:59:52;;;;;;;35.50;13.50;;;;;;;9.57;74.18;98619.10;24514;1349;3027861;-62
2021/12/09 01:02:21;;;;;;;32.40;12.90;;;;;;;9.35;74.99;98623.45;24476;1355;3054161;-65
2021/12/09 01:04:50;;;;;;;28.20;13.70;;;;;;;9.16;75.64;98626.64;24472;1355;3028639;-63
2021/12/09 01:07:19;;;;;;;34.90;13.60;;;;;;;8.98;76.12;98628.06;24504;1355;3051651;-63
2021/12/09 01:09:48;;;;;;;31.20;12.70;;;;;;;8.81;77.03;98628.98;24524;1354;3026581;-64
2021/12/09 01:12:17;;;;;;;24.40;11.10;;;;;;;8.69;77.33;98633.08;24470;1355;3047556;-64
2021/12/09 01:14:47;;;;;;;20.80;9.60;;;;;;;9.12;76.84;98629.20;24529;1355;3026149;-66
2021/12/09 01:17:16;;;;;;;23.70;10.80;;;;;;;9.61;74.88;98626.00;24480;1358;3071041;-66
2021/12/09 01:19:45;;;;;;;23.20;10.90;;;;;;;9.63;74.63;98630.05;24529;1355;3026717;-64
2021/12/09 01:22:14;;;;;;;27.00;11.40;;;;;;;9.49;74.83;98626.64;24481;1358;3050563;-66
2021/12/09 01:24:43;;;;;;;24.60;11.20;;;;;;;9.26;75.61;98635.52;24492;1354;3026253;-64
2021/12/09 01:27:13;;;;;;;20.30;10.60;;;;;;;9.06;76.50;98636.74;24530;1355;3026049;-64
2021/12/09 01:29:51;;;;;;;24.30;12.20;;;;;;;8.94;76.65;98637.55;24466;1354;3050502;-66
2021/12/09 01:32:29;;;;;;;16.30;8.40;;;;;;;8.84;76.93;98637.15;24455;1349;3071139;-64
2021/12/09 01:34:59;;;;;;;18.50;9.70;;;;;;;9.42;76.04;98630.13;24516;1355;3051542;-65
2021/12/09 01:37:28;;;;;;;21.30;9.80;;;;;;;9.87;74.59;98635.38;24482;1354;3026207;-65
2021/12/09 01:39:57;;;;;;;19.40;10.30;;;;;;;9.80;74.64;98635.84;24470;1355;3026468;-64
2021/12/09 01:42:26;;;;;;;23.40;10.90;;;;;;;9.68;74.85;98637.90;24479;1359;3048972;-62
2021/12/09 01:44:58;;;;;;;22.90;11.40;;;;;;;9.46;75.44;98645.38;24527;1355;3026271;-63
2021/12/09 01:47:29;;;;;;;24.20;12.20;;;;;;;9.24;76.29;98647.25;24457;1354;3029388;-66
2021/12/09 01:49:58;;;;;;;28.60;11.30;;;;;;;9.10;77.01;98649.23;24490;1355;3026899;-62
2021/12/09 01:52:27;;;;;;;26.20;11.90;;;;;;;9.37;77.14;98653.52;24479;1356;3026913;-65
2021/12/09 01:54:56;;;;;;;22.70;10.60;;;;;;;9.74;76.06;98651.65;24485;1354;3025809;-65
2021/12/09 01:57:25;;;;;;;29.20;11.20;;;;;;;9.78;75.35;98653.62;24525;1355;3058493;-65
2021/12/09 01:59:54;;;;;;;24.90;12.20;;;;;;;9.60;75.75;98655.42;24495;1352;3026537;-63
2021/12/09 02:02:23;;;;;;;29.20;12.40;;;;;;;9.44;76.27;98656.05;24482;1355;3054444;-64
2021/12/09 02:04:52;;;;;;;28.80;12.10;;;;;;;9.27;76.86;98660.13;24466;1352;3028799;-63
2021/12/09 02:07:21;;;;;;;23.00;10.70;;;;;;;9.15;77.55;98662.86;24484;1355;3050158;-65
2021/12/09 02:09:50;;;;;;;19.40;9.70;;;;;;;9.52;76.72;98662.42;24484;1358;3026198;-64
2021/12/09 02:12:18;;;;;;;24.40;11.30;;;;;;;9.96;75.42;98658.19;24503;1348;3049043;-64
2021/12/09 02:14:47;;;;;;;21.90;11.00;;;;;;;10.05;75.03;98661.41;24491;1354;3027232;-63
2021/12/09 02:17:16;;;;;;;22.80;11.10;;;;;;;9.97;75.01;98662.16;24481;1355;3071322;-62
2021/12/09 02:19:48;;;;;;;31.70;13.20;;;;;;;9.82;75.28;98665.81;24453;1358;3026437;-62
2021/12/09 02:22:17;;;;;;;27.00;13.70;;;;;;;9.62;75.90;98674.52;24480;1354;3053515;-64
2021/12/09 02:24:46;;;;;;;22.70;10.40;;;;;;;9.42;76.70;98677.50;24402;1357;3026555;-64
2021/12/09 02:27:15;;;;;;;19.80;9.80;;;;;;;9.87;75.84;98678.74;24466;1355;3026414;-62
2021/12/09 02:29:44;;;;;;;20.80;11.00;;;;;;;10.34;74.07;98674.91;24408;1361;3052215;-65
2021/12/09 02:32:13;;;;;;;19.50;11.00;;;;;;;10.36;73.55;98677.40;24412;1359;3026612;-65
2021/12/09 02:34:41;;;;;;;26.60;11.80;;;;;;;10.17;74.19;98681.17;24435;1358;3055313;-66
2021/12/09 02:37:18;;;;;;;35.50;12.90;;;;;;;9.82;75.45;98684.86;24452;1361;3053778;-66
2021/12/09 02:39:47;;;;;;;31.20;12.10;;;;;;;9.59;76.78;98691.19;24439;1355;3026601;-64
2021/12/09 02:42:16;;;;;;;22.60;11.30;;;;;;;9.41;78.13;98698.36;24485;1354;3031129;-66
2021/12/09 02:44:46;;;;;;;24.10;11.00;;;;;;;9.81;77.41;98695.62;24482;1354;3053854;-64
2021/12/09 02:47:15;;;;;;;22.90;11.50;;;;;;;10.31;75.72;98692.08;24452;1354;3026459;-63
2021/12/09 02:49:44;;;;;;;33.40;13.40;;;;;;;10.37;75.37;98701.84;24474;1358;3026356;-65
2021/12/09 02:52:13;;;;;;;29.00;12.90;;;;;;;10.15;75.91;98707.95;24496;1354;3029476;-64
2021/12/09 02:54:42;;;;;;;34.50;13.60;;;;;;;9.93;76.70;98709.30;24459;1362;3070870;-65
2021/12/09 02:57:12;;;;;;;40.90;13.10;;;;;;;9.63;77.88;98713.45;24467;1360;3026959;-64
2021/12/09 02:59:41;;;;;;;23.00;11.50;;;;;;;9.56;78.25;98717.11;24452;1361;3053048;-64
2021/12/09 03:02:10;;;;;;;25.60;12.30;;;;;;;10.03;77.48;98716.80;24450;1360;3026581;-64
2021/12/09 03:04:40;;;;;;;30.40;12.40;;;;;;;10.60;75.51;98720.81;24477;1357;3053582;-65
2021/12/09 03:07:25;;;;;;;32.30;13.60;;;;;;;10.65;74.93;98722.95;24465;1360;3026661;-66
2021/12/09 03:09:59;;;;;;;51.50;14.00;;;;;;;10.43;75.05;98724.30;24450;1354;3049337;-65
2021/12/09 03:12:31;;;;;;;37.50;14.10;;;;;;;10.24;75.95;98729.67;24524;1361;3056144;-64
2021/12/09 03:15:00;;;;;;;47.00;14.50;;;;;;;10.06;75.98;98737.08;24494;1354;3026584;-63
2021/12/09 03:17:30;;;;;;;26.40;12.40;;;;;;;9.86;77.16;98740.73;24490;1358;3026880;-65
2021/12/09 03:20:00;;;;;;;25.90;11.30;;;;;;;10.30;76.39;98739.29;24525;1361;3027384;-63
2021/12/09 03:22:28;;;;;;;29.10;12.70;;;;;;;10.83;74.82;98735.86;24441;1358;3051758;-65
2021/12/09 03:24:57;;;;;;;33.30;13.80;;;;;;;10.80;74.13;98733.07;24397;1354;3026043;-63
2021/12/09 03:27:27;;;;;;;40.80;13.00;;;;;;;10.62;74.65;98738.20;24476;1355;3054588;-65
2021/12/09 03:29:56;;;;;;;39.30;14.40;;;;;;;10.41;74.96;98739.02;24439;1355;3027241;-65
2021/12/09 03:32:24;;;;;;;53.80;15.30;;;;;;;10.21;75.51;98740.58;24500;1355;3051568;-64
2021/12/09 03:34:53;;;;;;;20.60;11.60;;;;;;;10.04;75.83;98742.50;24476;1355;3026515;-64
2021/12/09 03:37:24;;;;;;;26.60;12.70;;;;;;;10.44;75.29;98747.88;24508;1355;3055898;-64
2021/12/09 03:39:53;;;;;;;25.90;12.80;;;;;;;10.83;73.93;98750.19;24498;1355;3026577;-68
2021/12/09 03:42:26;;;;;;;27.90;12.60;;;;;;;10.86;73.85;98750.68;24464;1355;3026644;-64
2021/12/09 03:44:55;;;;;;;29.80;13.10;;;;;;;10.71;74.04;98753.90;24469;1358;3026428;-65
2021/12/09 03:47:25;;;;;;;51.40;14.70;;;;;;;10.41;74.80;98754.42;24400;1352;3028547;-63
2021/12/09 03:49:55;;;;;;;40.30;13.80;;;;;;;10.17;75.57;98756.05;24491;1355;3054604;-64
2021/12/09 03:52:26;;;;;;;25.00;11.90;;;;;;;9.97;76.52;98760.30;24493;1355;3028192;-64
2021/12/09 03:54:55;;;;;;;26.80;12.30;;;;;;;10.28;76.00;98761.66;24531;1355;3028077;-67
2021/12/09 03:57:24;;;;;;;29.30;12.50;;;;;;;10.69;74.96;98765.42;24475;1355;3026822;-64
2021/12/09 03:59:53;;;;;;;30.40;12.60;;;;;;;10.66;74.72;98764.90;24515;1355;3026602;-63
2021/12/09 04:02:22;;;;;;;30.80;13.00;;;;;;;10.58;75.04;98769.52;24473;1355;3068416;-65
2021/12/09 04:04:51;;;;;;;52.50;14.00;;;;;;;10.39;75.51;98769.48;24509;1358;3026811;-67
2021/12/09 04:07:20;;;;;;;37.60;14.50;;;;;;;10.16;75.95;98774.50;24478;1355;3052762;-66
2021/12/09 04:09:49;;;;;;;20.20;10.40;;;;;;;9.92;76.92;98777.38;24481;1359;3026692;-66
2021/12/09 04:12:30;;;;;;;23.00;11.70;;;;;;;10.27;76.68;98780.93;24498;1355;3055394;-64
2021/12/09 04:14:59;;;;;;;23.80;10.30;;;;;;;10.68;75.54;98780.16;24495;1355;3026045;-66
2021/12/09 04:17:28;;;;;;;25.60;9.40;;;;;;;10.56;75.35;98780.34;24459;1361;3052902;-65
2021/12/09 04:19:57;;;;;;;27.40;10.00;;;;;;;10.41;75.93;98780.89;24495;1358;3026775;-66
2021/12/09 04:22:28;;;;;;;42.20;11.70;;;;;;;10.15;76.63;98786.98;24517;1355;3057007;-67
2021/12/09 04:24:57;;;;;;;21.70;11.70;;;;;;;9.99;76.96;98788.46;24469;1349;3028194;-64
2021/12/09 04:27:26;;;;;;;18.10;9.40;;;;;;;9.78;77.87;98794.95;24475;1355;3051678;-65
2021/12/09 04:29:55;;;;;;;15.50;7.60;;;;;;;10.19;77.31;98790.98;24497;1356;3027183;-64
2021/12/09 04:32:27;;;;;;;18.10;9.30;;;;;;;10.66;75.72;98789.03;24504;1358;3053943;-64
2021/12/09 04:34:57;;;;;;;24.20;9.60;;;;;;;10.74;75.24;98792.88;24517;1357;3030258;-68
2021/12/09 04:37:26;;;;;;;16.70;9.10;;;;;;;10.44;75.75;98797.30;24514;1356;3048169;-65
2021/12/09 04:39:54;;;;;;;26.00;9.60;;;;;;;10.15;77.02;98797.16;24529;1355;3026815;-66
2021/12/09 04:42:23;;;;;;;37.20;10.90;;;;;;;9.94;77.43;98803.55;24480;1355;3068284;-66
2021/12/09 04:44:52;;;;;;;15.90;8.50;;;;;;;9.54;79.53;98811.29;24500;1356;3028086;-66
2021/12/09 04:47:21;;;;;;;19.00;10.00;;;;;;;10.02;78.55;98808.00;24518;1359;3049221;-63
2021/12/09 04:49:50;;;;;;;20.80;10.60;;;;;;;10.48;76.77;98809.80;24476;1355;3027466;-66
2021/12/09 04:52:19;;;;;;;24.50;9.50;;;;;;;10.41;76.73;98811.63;24554;1356;3052250;-65
2021/12/09 04:54:48;;;;;;;30.30;10.40;;;;;;;10.20;77.42;98815.88;24495;1355;3026710;-66
2021/12/09 04:57:17;;;;;;;64.30;10.90;;;;;;;9.97;78.09;98820.41;24506;1356;3049300;-65
2021/12/09 04:59:47;;;;;;;23.40;11.30;;;;;;;9.79;78.98;98829.86;24526;1349;3029310;-66
2021/12/09 05:03:06;;;;;;;18.20;9.80;;;;;;;9.66;79.28;98831.60;24507;1358;3056635;-66
2021/12/09 05:05:09;;;;;;;16.60;9.80;;;;;;;10.26;78.25;98832.12;24519;1359;3049946;-65
2021/12/09 05:07:39;;;;;;;19.80;9.20;;;;;;;10.69;76.53;98835.31;24543;1359;3026685;-66
2021/12/09 05:10:08;;;;;;;20.40;9.70;;;;;;;10.64;76.10;98837.70;24552;1355;3026097;-63
2021/12/09 05:12:37;;;;;;;32.10;10.30;;;;;;;10.39;76.50;98841.20;24514;1355;3051609;-66
2021/12/09 05:15:09;;;;;;;39.20;10.60;;;;;;;10.20;77.23;98842.00;24523;1358;3026738;-66
2021/12/09 05:17:38;;;;;;;26.90;11.40;;;;;;;9.88;78.30;98846.20;24537;1356;3026943;-63
2021/12/09 05:20:08;;;;;;;14.70;9.10;;;;;;;9.47;80.21;98851.44;24481;1358;3029149;-63
2021/12/09 05:22:44;;;;;;;16.00;8.50;;;;;;;9.56;80.23;98856.58;24484;1355;3055764;-64
2021/12/09 05:25:13;;;;;;;13.60;7.40;;;;;;;9.63;78.84;98856.34;24481;1361;3026557;-65
2021/12/09 05:27:42;;;;;;;9.70;6.00;;;;;;;9.54;78.81;98856.36;24478;1355;3048957;-65
2021/12/09 05:30:13;;;;;;;12.20;6.80;;;;;;;9.33;79.39;98863.85;24518;1355;3030343;-65
2021/12/09 05:32:42;;;;;;;13.00;7.20;;;;;;;9.13;79.98;98869.64;24503;1355;3026839;-64
2021/12/09 05:35:11;;;;;;;11.20;7.60;;;;;;;8.97;80.86;98874.55;24510;1352;3027795;-66
2021/12/09 05:37:40;;;;;;;8.60;4.30;;;;;;;9.00;80.72;98876.99;24449;1355;3055002;-65
2021/12/09 05:40:10;;;;;;;9.60;5.20;;;;;;;9.52;79.24;98877.99;24514;1352;3026287;-65
2021/12/09 05:42:39;;;;;;;7.20;4.70;;;;;;;9.65;77.96;98877.67;24491;1359;3026849;-66
2021/12/09 05:45:08;;;;;;;12.30;7.20;;;;;;;9.60;77.97;98880.46;24481;1358;3026812;-66
2021/12/09 05:47:37;;;;;;;16.20;8.20;;;;;;;9.14;79.74;98889.88;24500;1352;3051113;-66
2021/12/09 05:50:08;;;;;;;13.50;7.40;;;;;;;8.92;80.88;98899.82;24468;1355;3026571;-66
2021/12/09 05:52:37;;;;;;;10.80;5.10;;;;;;;8.85;81.28;98907.23;24520;1355;3026864;-69
2021/12/09 05:55:07;;;;;;;12.20;6.00;;;;;;;9.16;80.23;98908.66;24507;1355;3025967;-65
2021/12/09 05:57:36;;;;;;;9.90;5.40;;;;;;;9.42;79.15;98906.27;24473;1355;3068556;-67
2021/12/09 06:00:08;;;;;;;10.20;5.90;;;;;;;9.58;78.18;98911.23;24499;1358;3026155;-65
2021/12/09 06:02:42;;;;;;;13.40;6.30;;;;;;;9.09;79.61;98918.71;24511;1353;3051856;-65
2021/12/09 06:05:12;;;;;;;9.80;6.40;;;;;;;9.08;79.68;98919.09;24461;1359;3026532;-63
2021/12/09 06:07:41;;;;;;;9.70;4.80;;;;;;;8.87;80.44;98923.56;24508;1352;3026772;-64
2021/12/09 06:10:10;;;;;;;8.70;4.90;;;;;;;9.19;79.80;98929.39;24468;1358;3050473;-68
2021/12/09 06:12:39;;;;;;;9.20;4.60;;;;;;;9.68;77.80;98929.08;24515;1355;3026423;-65
2021/12/09 06:15:09;;;;;;;11.70;5.40;;;;;;;9.60;77.69;98933.47;24505;1355;3054416;-66
2021/12/09 06:17:38;;;;;;;9.50;5.00;;;;;;;9.50;77.87;98933.73;24518;1356;3027681;-66
2021/12/09 06:20:08;;;;;;;9.70;5.40;;;;;;;9.11;78.92;98941.80;24499;1358;3026761;-67
2021/12/09 06:22:39;;;;;;;9.30;5.40;;;;;;;8.82;79.98;98950.56;24552;1352;3053983;-67
2021/12/09 06:25:16;;;;;;;6.40;3.40;;;;;;;8.72;80.84;98959.55;24503;1357;3027824;-66
2021/12/09 06:27:48;;;;;;;8.30;3.90;;;;;;;9.23;79.04;98949.81;24533;1352;3071121;-64
2021/12/09 06:30:18;;;;;;;6.60;4.70;;;;;;;9.70;77.23;98949.93;24504;1359;3026360;-65
2021/12/09 06:32:47;;;;;;;11.20;5.20;;;;;;;9.67;77.03;98955.88;24496;1357;3026788;-67
2021/12/09 06:35:16;;;;;;;17.00;7.50;;;;;;;9.49;77.45;98955.31;24505;1359;3027694;-64
2021/12/09 06:37:47;;;;;;;23.00;8.30;;;;;;;9.12;78.55;98966.20;24532;1352;3049941;-64
2021/12/09 06:40:18;;;;;;;17.70;7.40;;;;;;;8.90;79.35;98963.16;24522;1352;3026865;-63
2021/12/09 06:42:47;;;;;;;18.70;7.90;;;;;;;8.89;79.86;98969.87;24513;1357;3026276;-66
2021/12/09 06:45:20;;;;;;;18.90;8.00;;;;;;;9.23;78.71;98967.59;24549;1352;3026816;-64
2021/12/09 06:47:50;;;;;;;23.90;10.00;;;;;;;9.53;77.54;98962.24;24507;1358;3026787;-64
2021/12/09 06:50:19;;;;;;;26.50;11.00;;;;;;;9.53;77.15;98964.45;24508;1352;3026694;-64
2021/12/09 06:52:48;;;;;;;22.20;10.30;;;;;;;9.58;77.10;98971.17;24478;1354;3026828;-65
2021/12/09 06:55:18;;;;;;;22.20;10.40;;;;;;;9.37;77.90;98976.52;24503;1352;3026117;-66
2021/12/09 06:57:47;;;;;;;21.90;9.50;;;;;;;9.21;78.42;98977.73;24527;1352;3052880;-64
2021/12/09 07:00:21;;;;;;;12.50;5.10;;;;;;;8.95;79.73;98992.24;24509;1356;3026479;-68
2021/12/09 07:02:50;;;;;;;9.10;4.70;;;;;;;9.29;78.82;98989.22;24512;1358;3052318;-69
2021/12/09 07:05:21;;;;;;;14.70;6.80;;;;;;;9.78;76.93;98989.81;24558;1352;3026646;-68
2021/12/09 07:07:50;;;;;;;16.80;8.10;;;;;;;9.78;76.90;98992.99;24583;1352;3056803;-67
2021/12/09 07:10:22;;;;;;;14.30;8.60;;;;;;;9.50;77.66;99003.16;24535;1356;3026353;-68
2021/12/09 07:12:52;;;;;;;11.40;6.60;;;;;;;9.12;78.48;99009.37;24554;1352;3056053;-65
2021/12/09 07:15:22;;;;;;;12.80;7.00;;;;;;;9.01;78.32;99009.66;24485;1352;3026860;-66
2021/12/09 07:17:51;;;;;;;12.50;5.00;;;;;;;8.99;78.63;99015.38;24473;1349;3026497;-63
2021/12/09 07:20:23;;;;;;;9.90;5.10;;;;;;;9.32;77.49;99011.27;24479;1358;3051912;-65
2021/12/09 07:22:52;;;;;;;7.80;3.60;;;;;;;9.58;75.29;99016.61;24487;1355;3026799;-65
2021/12/09 07:25:22;;;;;;;5.60;3.40;;;;;;;9.54;74.80;99021.96;24482;1355;3028392;-64
2021/12/09 07:27:52;;;;;;;5.80;2.90;;;;;;;9.19;75.19;99031.28;24523;1355;3053582;-65
2021/12/09 07:30:23;;;;;;;5.80;2.90;;;;;;;9.09;75.47;99031.92;24490;1359;3027269;-64
2021/12/09 07:32:52;;;;;;;12.20;3.30;;;;;;;8.85;76.04;99034.38;24543;1355;3026388;-66
2021/12/09 07:35:23;;;;;;;4.50;2.70;;;;;;;8.71;76.90;99035.61;24526;1355;3026688;-65
2021/12/09 07:37:52;;;;;;;4.20;2.70;;;;;;;8.50;78.01;99038.01;23286;1355;3053814;-64
2021/12/09 07:40:20;;;;;;;4.30;2.60;;;;;;;9.02;76.44;99034.57;24503;1355;3028461;-64
2021/12/09 07:42:49;;;;;;;3.30;2.30;;;;;;;9.36;74.70;99041.43;24476;1358;3052813;-66
2021/12/09 07:45:19;;;;;;;3.10;1.90;;;;;;;9.21;74.07;99048.11;24492;1355;3026846;-65
2021/12/09 07:47:48;;;;;;;4.40;2.20;;;;;;;9.24;74.18;99049.00;24495;1358;3049440;-64
2021/12/09 07:50:20;;;;;;;4.60;2.70;;;;;;;9.27;74.29;99052.28;24531;1355;3026799;-64
2021/12/09 07:52:51;;;;;;;2.90;1.80;;;;;;;9.04;75.01;99051.97;24513;1355;3026698;-63
2021/12/09 07:55:21;;;;;;;4.10;2.40;;;;;;;8.87;74.48;99054.04;24494;1355;3027045;-65
2021/12/09 07:57:50;;;;;;;8.60;1.90;;;;;;;8.65;75.92;99058.45;24476;1355;3027201;-65
2021/12/09 08:00:26;;;;;;;3.20;1.70;;;;;;;9.10;74.82;99062.60;24509;1355;3027434;-64
2021/12/09 08:02:56;;;;;;;3.20;1.80;;;;;;;9.36;73.45;99064.16;24525;1355;3055416;-64
2021/12/09 08:05:25;;;;;;;6.00;1.40;;;;;;;9.55;73.06;99069.64;24482;1361;3029037;-67
2021/12/09 08:07:55;;;;;;;2.50;1.70;;;;;;;9.51;73.04;99068.60;24490;1355;3028416;-64
2021/12/09 08:10:24;;;;;;;2.20;1.30;;;;;;;9.31;73.49;99069.70;24527;1355;3028418;-64
2021/12/09 08:12:53;;;;;;;2.00;1.50;;;;;;;9.13;73.96;99076.36;24484;1355;3058829;-64
2021/12/09 08:15:22;;;;;;;2.60;1.20;;;;;;;9.07;74.20;99080.94;24517;1355;3027371;-63
2021/12/09 08:18:14;;;;;;;2.50;1.70;;;;;;;8.87;74.41;99081.27;24490;1355;3051539;-64
2021/12/09 08:20:47;;;;;;;1.90;1.30;;;;;;;8.84;74.66;99088.91;24497;1358;3058829;-65
2021/12/09 08:23:16;;;;;;;3.50;1.30;;;;;;;9.50;73.13;99087.38;24504;1360;3026635;-65
2021/12/09 08:25:47;;;;;;;2.90;1.50;;;;;;;10.15;71.28;99082.43;24521;1355;3026418;-64
2021/12/09 08:28:16;;;;;;;3.00;1.50;;;;;;;9.97;71.01;99084.98;24532;1353;3029145;-63
2021/12/09 08:30:46;;;;;;;2.10;1.60;;;;;;;9.68;72.07;99085.95;24447;1357;3026866;-64
2021/12/09 08:33:15;;;;;;;3.90;1.70;;;;;;;9.31;73.18;99089.95;24504;1355;3026263;-66
2021/12/09 08:35:43;;;;;;;2.10;1.60;;;;;;;9.10;73.61;99083.95;24505;1360;3027306;-65
2021/12/09 08:38:13;;;;;;;4.20;1.80;;;;;;;8.97;74.05;99083.13;24478;1360;3070071;-65
2021/12/09 08:40:43;;;;;;;4.30;2.10;;;;;;;8.90;74.48;99079.35;24548;1355;3028973;-61
2021/12/09 08:43:19;;;;;;;3.80;1.90;;;;;;;8.84;75.17;99083.02;24539;1355;3054638;-64
2021/12/09 08:45:49;;;;;;;4.40;2.40;;;;;;;9.45;74.15;99078.63;24541;1358;3026622;-67
2021/12/09 08:48:18;;;;;;;2.80;2.10;;;;;;;10.05;72.03;99076.92;24516;1355;3027417;-65
2021/12/09 08:50:47;;;;;;;5.10;3.00;;;;;;;10.02;71.19;99073.44;24508;1355;3026555;-64
2021/12/09 08:53:20;;;;;;;6.20;3.20;;;;;;;9.90;71.76;99077.76;24481;1355;3067722;-63
2021/12/09 08:55:50;;;;;;;4.40;2.50;;;;;;;9.67;72.13;99073.95;24493;1360;3027158;-64
2021/12/09 08:58:19;;;;;;;5.70;3.20;;;;;;;9.50;72.24;99079.20;24508;1352;3028422;-64
2021/12/09 09:00:52;;;;;;;4.00;2.60;;;;;;;9.23;73.37;99080.85;24464;1359;3071465;-65
2021/12/09 09:03:21;;;;;;;5.40;3.30;;;;;;;9.08;73.79;99078.60;24483;1359;3026473;-63
2021/12/09 09:05:52;;;;;;;6.00;2.40;;;;;;;9.24;73.61;99076.41;24489;1356;3028153;-65
2021/12/09 09:08:22;;;;;;;6.40;3.20;;;;;;;9.79;71.57;99076.35;24526;1358;3070445;-66
2021/12/09 09:10:51;;;;;;;8.50;3.10;;;;;;;10.28;70.01;99069.33;24514;1355;3026523;-66
2021/12/09 09:13:35;;;;;;;6.90;3.40;;;;;;;10.31;69.81;99070.34;24482;1361;3054138;-67
2021/12/09 09:16:04;;;;;;;7.70;3.10;;;;;;;10.14;70.20;99071.46;24493;1359;3026268;-68
2021/12/09 09:18:33;;;;;;;5.70;3.40;;;;;;;9.58;72.18;99073.09;24494;1356;3026533;-66
2021/12/09 09:21:02;;;;;;;5.90;3.10;;;;;;;9.75;71.69;99069.05;24510;1358;3053029;-65
2021/12/09 09:23:31;;;;;;;6.80;3.30;;;;;;;9.63;72.42;99073.13;24480;1352;3026468;-66
2021/12/09 09:26:01;;;;;;;8.00;3.20;;;;;;;9.53;72.45;99071.29;24461;1361;3026792;-66
2021/12/09 09:28:30;;;;;;;4.50;2.00;;;;;;;9.49;72.38;99074.69;24471;1355;3050406;-68
2021/12/09 09:31:03;;;;;;;4.30;2.00;;;;;;;9.92;71.15;99067.08;24507;1359;3027143;-60
2021/12/09 09:33:37;;;;;;;4.70;1.90;;;;;;;10.18;69.95;99072.42;24476;1355;3051371;-61
2021/12/09 09:36:24;;;;;;;7.10;2.10;;;;;;;10.10;69.91;99074.50;24479;1352;3054631;-63
2021/12/09 09:38:59;;;;;;;4.90;1.90;;;;;;;9.95;70.13;99073.21;24510;1357;3026455;-63
2021/12/09 09:41:32;;;;;;;6.50;2.50;;;;;;;9.90;70.44;99075.63;24532;1354;3049740;-65
2021/12/09 09:44:17;;;;;;;6.20;2.30;;;;;;;9.86;71.04;99073.77;24471;1361;3055611;-63
2021/12/09 09:46:46;;;;;;;7.10;2.20;;;;;;;9.59;71.82;99077.03;24489;1361;3055791;-62
2021/12/09 09:49:15;;;;;;;5.40;2.20;;;;;;;9.45;72.35;99083.70;24512;1356;3028842;-67
2021/12/09 09:51:44;;;;;;;6.20;2.20;;;;;;;9.29;72.82;99081.02;24514;1355;3051877;-66
2021/12/09 09:54:13;;;;;;;10.90;3.20;;;;;;;9.70;72.28;99075.45;24514;1352;3028924;-64
2021/12/09 09:56:42;;;;;;;6.20;2.60;;;;;;;10.11;71.05;99072.37;24513;1357;3048540;-66
2021/12/09 09:59:12;;;;;;;8.00;3.90;;;;;;;10.13;70.99;99072.97;24510;1357;3027418;-63
2021/12/09 10:01:41;;;;;;;7.40;3.50;;;;;;;9.92;71.60;99075.13;24530;1358;3026792;-67
2021/12/09 10:04:20;;;;;;;13.10;5.00;;;;;;;9.87;71.92;99076.00;24530;1352;3028249;-64
2021/12/09 10:06:49;;;;;;;11.20;6.00;;;;;;;9.78;72.49;99078.67;24490;1356;3056540;-63
2021/12/09 10:09:18;;;;;;;16.60;6.40;;;;;;;9.65;72.99;99079.45;24485;1356;3026532;-63
2021/12/09 10:11:48;;;;;;;15.30;6.50;;;;;;;9.53;73.43;99082.30;24501;1355;3051275;-64
2021/12/09 10:14:19;;;;;;;11.80;6.00;;;;;;;9.43;74.01;99080.86;24505;1352;3028671;-61
2021/12/09 10:17:07;;;;;;;12.20;5.40;;;;;;;9.81;73.09;99080.05;24492;1359;3070680;-64
2021/12/09 10:19:38;;;;;;;15.50;7.30;;;;;;;10.37;71.08;99079.98;24500;1357;3049650;-64
2021/12/09 10:22:16;;;;;;;17.90;7.70;;;;;;;10.30;70.96;99085.82;24496;1355;3026808;-61
2021/12/09 10:24:46;;;;;;;19.30;9.20;;;;;;;9.96;72.20;99086.14;24503;1355;3053007;-67
2021/12/09 10:27:23;;;;;;;16.20;8.60;;;;;;;9.87;72.84;99080.58;24494;1355;3026787;-62
2021/12/09 10:29:57;;;;;;;17.00;7.60;;;;;;;9.75;73.20;99085.84;24480;1355;3051794;-64
2021/12/09 10:32:30;;;;;;;15.90;8.50;;;;;;;9.60;73.84;99089.61;24517;1355;3054729;-64
2021/12/09 10:35:15;;;;;;;15.70;6.20;;;;;;;9.47;74.48;99096.04;24487;1359;3049432;-62
2021/12/09 10:37:45;;;;;;;11.40;5.70;;;;;;;10.00;73.07;99081.98;24486;1355;3069076;-65
2021/12/09 10:40:17;;;;;;;13.80;6.10;;;;;;;10.40;71.94;99082.55;24522;1359;3026819;-64
2021/12/09 10:42:50;;;;;;;14.40;7.70;;;;;;;10.53;71.39;99087.34;24482;1361;3028000;-62
2021/12/09 10:45:23;;;;;;;14.80;6.60;;;;;;;10.24;72.23;99091.26;24511;1353;3052172;-63
2021/12/09 10:48:03;;;;;;;13.50;6.90;;;;;;;9.97;73.26;99091.09;24517;1355;3026985;-64
2021/12/09 10:50:37;;;;;;;13.40;7.40;;;;;;;9.76;74.33;99090.86;24478;1361;3052352;-65
2021/12/09 10:53:35;;;;;;;;;;;;;;;9.46;75.58;99093.58;24544;1355;3056038;-62
2021/12/09 10:56:10;;;;;;;13.60;6.90;;;;;;;9.36;76.13;99092.08;24509;1359;3051571;-64
2021/12/09 10:58:41;;;;;;;11.80;5.60;;;;;;;9.31;76.59;99092.77;24464;1361;3072675;-63
2021/12/09 11:01:14;;;;;;;12.00;6.00;;;;;;;9.93;75.38;99088.04;24494;1361;3027164;-64
2021/12/09 11:03:53;;;;;;;11.90;6.70;;;;;;;10.48;73.02;99086.94;24490;1355;3052918;-63
2021/12/09 11:06:35;;;;;;;12.70;7.10;;;;;;;10.52;72.55;99088.47;24495;1353;3052866;-61
2021/12/09 11:09:06;;;;;;;12.40;7.00;;;;;;;10.34;72.96;99092.24;24504;1361;3059070;-63
2021/12/09 11:11:39;;;;;;;14.70;7.50;;;;;;;9.91;73.92;99098.49;24504;1358;3026782;-66
2021/12/09 11:14:13;;;;;;;17.80;8.40;;;;;;;9.60;74.61;99103.03;24554;1356;3028086;-64
2021/12/09 11:16:43;;;;;;;15.40;8.30;;;;;;;9.56;74.81;99105.05;24519;1358;3052561;-65
2021/12/09 11:19:16;;;;;;;15.20;6.30;;;;;;;9.50;75.48;99108.95;24491;1355;3026542;-63
2021/12/09 11:21:53;;;;;;;11.70;6.30;;;;;;;10.00;74.70;99100.00;24519;1357;3026566;-68
2021/12/09 11:24:26;;;;;;;14.10;6.60;;;;;;;10.48;73.02;99103.61;24511;1361;3054787;-66
2021/12/09 11:27:02;;;;;;;14.20;7.50;;;;;;;10.18;73.28;99109.88;24516;1359;3026123;-67
2021/12/09 11:29:35;;;;;;;16.00;7.90;;;;;;;9.89;74.40;99111.21;24482;1358;3054827;-64
2021/12/09 11:32:15;;;;;;;20.50;8.50;;;;;;;9.77;74.53;99113.49;24507;1361;3028943;-63